createdAt,value
2023-04-11T00:04:39.117Z,6.47
2023-04-11T00:09:41.417Z,5.07
2023-04-11T00:14:48.764Z,6.13
2023-04-11T00:19:53.330Z,5.30
2023-04-11T00:24:55.438Z,4.55
2023-04-11T00:29:58.048Z,4.28
2023-04-11T00:35:00.329Z,4.65
2023-04-11T00:40:05.683Z,5.65
2023-04-11T00:45:08.273Z,4.50
2023-04-11T00:50:14.200Z,5.05
2023-04-11T00:55:16.997Z,5.85
2023-04-11T01:00:19.247Z,4.95
2023-04-11T01:05:21.797Z,4.90
2023-04-11T01:10:25.514Z,4.78
2023-04-11T01:15:27.915Z,4.20
2023-04-11T01:20:31.649Z,5.60
2023-04-11T01:25:33.714Z,3.70
2023-04-11T01:30:35.786Z,4.75
2023-04-11T01:35:38.265Z,5.13
2023-04-11T01:40:41.272Z,4.13
2023-04-11T01:45:43.758Z,5.22
2023-04-11T01:50:45.773Z,4.15
2023-04-11T01:55:47.824Z,4.95
2023-04-11T02:00:49.958Z,4.28
2023-04-11T02:05:53.393Z,4.20
2023-04-11T02:10:55.545Z,4.07
2023-04-11T02:15:57.576Z,4.00
2023-04-11T02:21:02.015Z,4.10
2023-04-11T02:26:04.752Z,3.72
2023-04-11T02:31:07.217Z,4.15
2023-04-11T02:36:09.437Z,3.40
2023-04-11T02:41:11.574Z,3.45
2023-04-11T02:46:13.698Z,3.85
2023-04-11T02:51:18.944Z,3.70
2023-04-11T02:56:21.644Z,3.42
2023-04-11T03:01:29.221Z,3.13
2023-04-11T03:06:33.262Z,2.88
2023-04-11T03:11:36.333Z,2.80
2023-04-11T03:16:39.959Z,2.13
2023-04-11T03:21:42.039Z,2.58
2023-04-11T03:26:45.067Z,2.20
2023-04-11T03:31:50.769Z,2.80
2023-04-11T03:36:53.692Z,2.17
2023-04-11T03:41:56.270Z,2.40
2023-04-11T03:46:59.254Z,2.10
2023-04-11T03:52:10.054Z,2.28
2023-04-11T03:57:13.972Z,2.28
2023-04-11T04:02:16.136Z,2.63
2023-04-11T04:07:27.548Z,3.22
2023-04-11T04:12:37.215Z,2.85
2023-04-11T04:17:48.125Z,3.17
2023-04-11T04:23:18.089Z,2.40
2023-04-11T04:28:49.657Z,2.50
2023-04-11T04:34:09.741Z,2.95
2023-04-11T04:39:19.169Z,2.63
2023-04-11T04:44:25.165Z,2.10
2023-04-11T04:49:30.573Z,2.67
2023-04-11T04:54:32.959Z,2.50
2023-04-11T04:59:36.144Z,2.22
2023-04-11T05:04:44.946Z,2.70
2023-04-11T05:09:48.186Z,2.35
2023-04-11T05:14:56.740Z,2.08
2023-04-11T05:20:01.641Z,2.75
2023-04-11T05:25:08.769Z,2.53
2023-04-11T05:30:13.622Z,2.28
2023-04-11T05:35:16.934Z,2.10
2023-04-11T05:40:26.142Z,2.88
2023-04-11T05:45:28.195Z,2.45
2023-04-11T05:50:30.371Z,2.67
2023-04-11T05:55:32.530Z,3.10
2023-04-11T06:00:35.318Z,2.80
2023-04-11T06:05:37.939Z,2.55
2023-04-11T06:10:39.926Z,2.42
2023-04-11T06:15:42.036Z,2.97
2023-04-11T06:20:46.134Z,3.60
2023-04-11T06:25:48.177Z,2.70
2023-04-11T06:30:50.452Z,2.92
2023-04-11T06:35:52.572Z,3.00
2023-04-11T06:40:56.312Z,3.17
2023-04-11T06:45:58.390Z,2.50
2023-04-11T06:51:00.539Z,3.20
2023-04-11T06:56:02.704Z,2.33
2023-04-11T07:01:04.902Z,2.40
2023-04-11T07:06:10.782Z,3.10
2023-04-11T07:11:15.135Z,2.00
2023-04-11T07:16:17.608Z,1.70
2023-04-11T07:21:22.468Z,2.47
2023-04-11T07:26:27.049Z,2.63
2023-04-11T07:31:29.226Z,2.42
2023-04-11T07:36:31.873Z,2.42
2023-04-11T07:41:33.928Z,2.75
2023-04-11T07:46:35.951Z,1.83
2023-04-11T07:51:38.321Z,2.30
2023-04-11T07:56:40.420Z,2.95
2023-04-11T08:01:42.885Z,2.38
2023-04-11T08:06:45.179Z,2.00
2023-04-11T08:11:47.189Z,2.10
2023-04-11T08:16:51.539Z,1.77
2023-04-11T08:21:55.183Z,2.22
2023-04-11T08:26:57.441Z,1.92
2023-04-11T08:31:59.547Z,2.50
2023-04-11T08:37:01.729Z,2.00
2023-04-11T08:42:04.106Z,1.73
2023-04-11T08:47:07.419Z,1.80
2023-04-11T08:52:09.509Z,2.25
2023-04-11T08:57:21.882Z,2.05
2023-04-11T09:02:24.062Z,2.00
2023-04-11T09:07:26.674Z,1.90
2023-04-11T09:12:29.773Z,1.48
2023-04-11T09:17:41.894Z,2.70
2023-04-11T09:22:43.978Z,1.88
2023-04-11T09:27:47.317Z,2.10
2023-04-11T09:32:50.432Z,1.85
2023-04-11T09:37:54.672Z,2.00
2023-04-11T09:43:02.320Z,1.80
2023-04-11T09:48:05.407Z,2.13
2023-04-11T09:53:07.686Z,2.00
2023-04-11T09:58:11.183Z,2.08
2023-04-11T10:03:13.327Z,2.67
2023-04-11T10:08:30.486Z,1.88
2023-04-11T10:13:46.485Z,1.80
2023-04-11T10:18:55.001Z,1.75
2023-04-11T10:24:15.862Z,2.10
2023-04-11T10:29:28.136Z,1.50
2023-04-11T10:34:31.786Z,1.42
2023-04-11T10:40:08.936Z,1.92
2023-04-11T10:45:20.078Z,1.63
2023-04-11T10:55:46.585Z,1.50
2023-04-11T11:00:51.986Z,1.77
2023-04-11T11:06:02.292Z,1.42
2023-04-11T11:11:09.043Z,1.63
2023-04-11T11:16:16.492Z,1.42
2023-04-11T11:21:27.846Z,1.75
2023-04-11T11:26:42.416Z,1.70
2023-04-11T11:31:46.386Z,1.48
2023-04-11T11:36:48.774Z,1.30
2023-04-11T11:41:51.599Z,1.50
2023-04-11T11:47:07.424Z,1.13
2023-04-11T11:52:12.814Z,1.73
2023-04-11T11:57:23.965Z,1.63
2023-04-11T12:02:27.525Z,1.33
2023-04-11T12:07:34.339Z,1.40
2023-04-11T12:12:38.692Z,0.90
2023-04-11T12:17:41.122Z,1.52
2023-04-11T12:22:43.424Z,1.10
2023-04-11T12:27:47.142Z,0.82
2023-04-11T12:32:49.347Z,1.23
2023-04-11T12:37:51.813Z,1.33
2023-04-11T12:42:57.284Z,1.20
2023-04-11T12:47:59.929Z,0.90
2023-04-11T12:53:32.964Z,1.13
2023-04-11T12:58:47.250Z,1.00
2023-04-11T13:04:05.381Z,0.90
2023-04-11T13:09:11.529Z,0.73
2023-04-11T13:14:27.989Z,0.98
2023-04-11T13:19:47.428Z,1.00
2023-04-11T13:24:55.681Z,0.80
2023-04-11T13:29:57.978Z,0.90
2023-04-11T13:35:00.494Z,1.23
2023-04-11T13:40:06.198Z,1.25
2023-04-11T13:45:08.657Z,1.17
2023-04-11T13:50:10.829Z,1.00
2023-04-11T13:55:12.938Z,0.98
2023-04-11T14:00:15.651Z,1.20
2023-04-11T14:05:18.704Z,1.00
2023-04-11T14:10:21.082Z,1.45
2023-04-11T14:15:23.245Z,1.30
2023-04-11T14:20:25.882Z,1.30
2023-04-11T14:25:28.008Z,1.50
2023-04-11T14:30:30.337Z,1.50
2023-04-11T14:35:32.850Z,1.63
2023-04-11T14:40:34.885Z,1.25
2023-04-11T14:45:36.982Z,1.75
2023-04-11T14:50:39.093Z,1.20
2023-04-11T14:55:42.763Z,1.98
2023-04-11T15:00:45.599Z,1.70
2023-04-11T15:05:47.655Z,1.15
2023-04-11T15:10:53.951Z,1.50
2023-04-11T15:16:00.759Z,1.88
2023-04-11T15:21:03.423Z,1.50
2023-04-11T15:26:05.817Z,1.55
2023-04-11T15:31:12.823Z,1.73
2023-04-11T15:36:18.871Z,1.50
2023-04-11T15:41:21.189Z,1.85
2023-04-11T15:46:23.875Z,1.90
2023-04-11T15:51:27.021Z,2.13
2023-04-11T15:56:29.093Z,2.15
2023-04-11T16:01:31.534Z,2.28
2023-04-11T16:06:33.581Z,2.55
2023-04-11T16:11:38.490Z,2.25
2023-04-11T16:16:40.888Z,1.92
2023-04-11T16:21:43.212Z,2.20
2023-04-11T16:26:45.585Z,1.60
2023-04-11T16:31:47.929Z,1.73
2023-04-11T16:36:51.260Z,2.10
2023-04-11T16:41:55.532Z,1.95
2023-04-11T16:46:58.061Z,1.50
2023-04-11T16:52:00.136Z,1.80
2023-04-11T16:57:02.475Z,1.77
2023-04-11T17:02:05.332Z,1.77
2023-04-11T17:07:07.880Z,1.45
2023-04-11T17:12:10.510Z,1.65
2023-04-11T17:17:12.616Z,1.67
2023-04-11T17:22:14.979Z,1.35
2023-04-11T17:27:17.121Z,1.38
2023-04-11T17:32:19.183Z,1.50
2023-04-11T17:37:21.294Z,1.63
2023-04-11T17:42:23.490Z,2.00
2023-04-11T17:47:26.879Z,1.60
2023-04-11T17:52:28.896Z,1.65
2023-04-11T17:57:30.988Z,2.10
2023-04-11T18:02:33.260Z,1.23
2023-04-11T18:07:38.000Z,1.65
2023-04-11T18:12:48.335Z,1.20
2023-04-11T18:17:51.686Z,1.73
2023-04-11T18:22:56.009Z,1.80
2023-04-11T18:27:58.321Z,1.73
2023-04-11T18:33:00.609Z,1.63
2023-04-11T18:38:06.183Z,1.65
2023-04-11T18:43:08.390Z,1.77
2023-04-11T18:48:10.766Z,1.80
2023-04-11T18:53:13.936Z,1.38
2023-04-11T18:58:18.669Z,1.58
2023-04-11T19:03:22.559Z,2.15
2023-04-11T19:08:24.720Z,2.30
2023-04-11T19:13:26.812Z,1.90
2023-04-11T19:18:29.624Z,2.17
2023-04-11T19:23:32.029Z,5.90
2023-04-11T19:28:34.204Z,2.00
2023-04-11T19:33:38.706Z,2.80
2023-04-11T19:38:41.434Z,4.38
2023-04-11T19:43:44.246Z,6.55
2023-04-11T19:48:46.897Z,6.90
2023-04-11T19:53:50.481Z,2.53
2023-04-11T19:58:52.615Z,3.03
2023-04-11T20:03:57.060Z,6.10
2023-04-11T20:09:00.892Z,3.33
2023-04-11T20:14:03.613Z,2.78
2023-04-11T20:19:06.612Z,2.78
2023-04-11T20:24:10.440Z,2.42
2023-04-11T20:29:13.238Z,2.78
2023-04-11T20:34:15.322Z,2.28
2023-04-11T20:39:17.559Z,2.25
2023-04-11T20:44:23.708Z,2.22
2023-04-11T20:49:28.110Z,2.67
2023-04-11T20:54:30.246Z,3.10
2023-04-11T20:59:34.200Z,2.58
2023-04-11T21:04:36.622Z,2.90
2023-04-11T21:09:38.968Z,2.85
2023-04-11T21:14:41.632Z,2.10
2023-04-11T21:19:43.773Z,2.53
2023-04-11T21:24:46.044Z,2.33
2023-04-11T21:29:48.219Z,2.40
2023-04-11T21:34:50.776Z,2.70
2023-04-11T21:39:55.873Z,2.38
2023-04-11T21:44:58.226Z,3.30
2023-04-11T21:50:00.919Z,2.45
2023-04-11T21:55:06.453Z,2.22
2023-04-11T22:00:13.367Z,2.67
2023-04-11T22:05:17.421Z,2.22
2023-04-11T22:10:22.724Z,2.40
2023-04-11T22:15:26.269Z,2.47
2023-04-11T22:20:28.365Z,2.75
2023-04-11T22:25:30.496Z,2.83
2023-04-11T22:30:32.691Z,2.50
2023-04-11T22:35:35.008Z,2.40
2023-04-11T22:40:38.845Z,2.33
2023-04-11T22:45:42.920Z,2.72
2023-04-11T22:50:52.455Z,2.83
2023-04-11T22:55:54.527Z,2.78
2023-04-11T23:00:56.554Z,2.60
2023-04-11T23:05:58.578Z,2.40
2023-04-11T23:11:00.723Z,2.80
2023-04-11T23:16:02.800Z,2.50
2023-04-11T23:21:05.009Z,2.53
2023-04-11T23:26:07.355Z,1.80
2023-04-11T23:31:10.387Z,1.70
2023-04-11T23:36:12.851Z,1.77
2023-04-11T23:41:14.935Z,1.50
2023-04-11T23:46:18.075Z,1.70
2023-04-11T23:51:20.786Z,1.40
2023-04-11T23:56:23.088Z,1.58
